sensor_id;sensor_type;location;lat;lon;timestamp;P1;durP1;ratioP1;P2;durP2;ratioP2
6117;SDS011;3089;48.202;11.510;2022-12-07T00:01:16;9.07;;;5.40;;
6117;SDS011;3089;48.202;11.510;2022-12-07T00:03:46;9.40;;;5.20;;
6117;SDS011;3089;48.202;11.510;2022-12-07T00:06:16;9.80;;;5.53;;
6117;SDS011;3089;48.202;11.510;2022-12-07T00:08:44;12.50;;;5.90;;
6117;SDS011;3089;48.202;11.510;2022-12-07T00:11:15;11.43;;;5.53;;
6117;SDS011;3089;48.202;11.510;2022-12-07T00:13:45;12.90;;;6.10;;
6117;SDS011;3089;48.202;11.510;2022-12-07T00:16:14;11.90;;;5.67;;
6117;SDS011;3089;48.202;11.510;2022-12-07T00:18:43;9.50;;;5.50;;
6117;SDS011;3089;48.202;11.510;2022-12-07T00:21:12;10.37;;;5.20;;
6117;SDS011;3089;48.202;11.510;2022-12-07T00:23:42;8.10;;;4.40;;
6117;SDS011;3089;48.202;11.510;2022-12-07T00:26:12;8.40;;;5.00;;
6117;SDS011;3089;48.202;11.510;2022-12-07T00:28:44;9.27;;;5.17;;
6117;SDS011;3089;48.202;11.510;2022-12-07T00:31:12;10.80;;;5.17;;
6117;SDS011;3089;48.202;11.510;2022-12-07T00:33:42;9.93;;;4.97;;
6117;SDS011;3089;48.202;11.510;2022-12-07T00:36:11;9.80;;;5.20;;
6117;SDS011;3089;48.202;11.510;2022-12-07T00:38:40;10.53;;;5.00;;
6117;SDS011;3089;48.202;11.510;2022-12-07T00:41:09;8.80;;;4.77;;
6117;SDS011;3089;48.202;11.510;2022-12-07T00:43:39;8.63;;;4.30;;
6117;SDS011;3089;48.202;11.510;2022-12-07T00:46:09;9.33;;;4.90;;
6117;SDS011;3089;48.202;11.510;2022-12-07T00:48:38;9.20;;;5.20;;
6117;SDS011;3089;48.202;11.510;2022-12-07T00:51:06;8.03;;;4.60;;
6117;SDS011;3089;48.202;11.510;2022-12-07T00:53:35;9.73;;;4.97;;
6117;SDS011;3089;48.202;11.510;2022-12-07T00:56:06;9.20;;;4.70;;
6117;SDS011;3089;48.202;11.510;2022-12-07T00:58:35;10.10;;;5.43;;
6117;SDS011;3089;48.202;11.510;2022-12-07T01:01:03;8.30;;;4.83;;
6117;SDS011;3089;48.202;11.510;2022-12-07T01:03:34;8.13;;;4.47;;
6117;SDS011;3089;48.202;11.510;2022-12-07T01:06:02;7.50;;;4.57;;
6117;SDS011;3089;48.202;11.510;2022-12-07T01:08:30;12.10;;;5.30;;
6117;SDS011;3089;48.202;11.510;2022-12-07T01:10:59;9.13;;;5.60;;
6117;SDS011;3089;48.202;11.510;2022-12-07T01:13:27;9.20;;;4.27;;
6117;SDS011;3089;48.202;11.510;2022-12-07T01:15:56;8.30;;;4.93;;
6117;SDS011;3089;48.202;11.510;2022-12-07T01:18:26;7.27;;;4.40;;
6117;SDS011;3089;48.202;11.510;2022-12-07T01:21:00;8.60;;;4.70;;
6117;SDS011;3089;48.202;11.510;2022-12-07T01:23:28;8.77;;;4.67;;
6117;SDS011;3089;48.202;11.510;2022-12-07T01:25:57;9.77;;;5.00;;
6117;SDS011;3089;48.202;11.510;2022-12-07T01:28:25;10.03;;;5.50;;
6117;SDS011;3089;48.202;11.510;2022-12-07T01:30:57;9.50;;;5.40;;
6117;SDS011;3089;48.202;11.510;2022-12-07T01:33:26;7.90;;;4.33;;
6117;SDS011;3089;48.202;11.510;2022-12-07T01:36:01;7.60;;;4.40;;
6117;SDS011;3089;48.202;11.510;2022-12-07T01:38:30;8.20;;;4.70;;
6117;SDS011;3089;48.202;11.510;2022-12-07T01:40:59;8.83;;;4.33;;
6117;SDS011;3089;48.202;11.510;2022-12-07T01:43:29;9.43;;;4.60;;
6117;SDS011;3089;48.202;11.510;2022-12-07T01:46:01;10.63;;;5.47;;
6117;SDS011;3089;48.202;11.510;2022-12-07T01:48:32;8.90;;;4.70;;
6117;SDS011;3089;48.202;11.510;2022-12-07T01:51:03;8.87;;;5.20;;
6117;SDS011;3089;48.202;11.510;2022-12-07T01:53:36;8.80;;;4.50;;
6117;SDS011;3089;48.202;11.510;2022-12-07T01:56:06;7.30;;;3.83;;
6117;SDS011;3089;48.202;11.510;2022-12-07T01:58:37;7.83;;;4.80;;
6117;SDS011;3089;48.202;11.510;2022-12-07T02:01:05;8.20;;;4.77;;
6117;SDS011;3089;48.202;11.510;2022-12-07T02:03:34;9.37;;;4.87;;
6117;SDS011;3089;48.202;11.510;2022-12-07T02:06:07;7.63;;;4.83;;
6117;SDS011;3089;48.202;11.510;2022-12-07T02:08:37;6.67;;;3.87;;
6117;SDS011;3089;48.202;11.510;2022-12-07T02:11:05;11.63;;;5.00;;
6117;SDS011;3089;48.202;11.510;2022-12-07T02:13:35;8.67;;;4.90;;
6117;SDS011;3089;48.202;11.510;2022-12-07T02:16:09;9.73;;;4.47;;
6117;SDS011;3089;48.202;11.510;2022-12-07T02:18:51;10.33;;;5.00;;
6117;SDS011;3089;48.202;11.510;2022-12-07T02:21:31;9.67;;;5.17;;
6117;SDS011;3089;48.202;11.510;2022-12-07T02:24:15;9.67;;;4.87;;
6117;SDS011;3089;48.202;11.510;2022-12-07T02:27:07;7.50;;;4.70;;
6117;SDS011;3089;48.202;11.510;2022-12-07T02:29:54;8.27;;;4.10;;
6117;SDS011;3089;48.202;11.510;2022-12-07T02:32:27;8.53;;;4.67;;
6117;SDS011;3089;48.202;11.510;2022-12-07T02:35:04;9.13;;;4.63;;
6117;SDS011;3089;48.202;11.510;2022-12-07T02:37:35;10.30;;;4.80;;
6117;SDS011;3089;48.202;11.510;2022-12-07T02:40:06;10.13;;;4.70;;
6117;SDS011;3089;48.202;11.510;2022-12-07T02:42:40;8.77;;;4.40;;
6117;SDS011;3089;48.202;11.510;2022-12-07T02:45:13;10.27;;;5.07;;
6117;SDS011;3089;48.202;11.510;2022-12-07T02:47:45;7.50;;;4.03;;
6117;SDS011;3089;48.202;11.510;2022-12-07T02:50:15;9.60;;;5.17;;
6117;SDS011;3089;48.202;11.510;2022-12-07T02:52:46;8.30;;;4.40;;
6117;SDS011;3089;48.202;11.510;2022-12-07T02:55:15;9.77;;;5.10;;
6117;SDS011;3089;48.202;11.510;2022-12-07T02:57:51;7.17;;;4.27;;
6117;SDS011;3089;48.202;11.510;2022-12-07T03:00:29;13.73;;;4.47;;
6117;SDS011;3089;48.202;11.510;2022-12-07T03:03:06;8.00;;;4.80;;
6117;SDS011;3089;48.202;11.510;2022-12-07T03:05:48;8.90;;;4.40;;
6117;SDS011;3089;48.202;11.510;2022-12-07T03:08:29;8.60;;;4.90;;
6117;SDS011;3089;48.202;11.510;2022-12-07T03:11:03;8.53;;;4.23;;
6117;SDS011;3089;48.202;11.510;2022-12-07T03:13:34;9.30;;;4.40;;
6117;SDS011;3089;48.202;11.510;2022-12-07T03:16:09;8.40;;;4.80;;
6117;SDS011;3089;48.202;11.510;2022-12-07T03:18:45;10.87;;;5.30;;
6117;SDS011;3089;48.202;11.510;2022-12-07T03:21:17;10.13;;;5.70;;
6117;SDS011;3089;48.202;11.510;2022-12-07T03:23:49;9.50;;;5.20;;
6117;SDS011;3089;48.202;11.510;2022-12-07T03:26:21;8.20;;;4.97;;
6117;SDS011;3089;48.202;11.510;2022-12-07T03:28:52;7.10;;;3.93;;
6117;SDS011;3089;48.202;11.510;2022-12-07T03:31:25;9.30;;;4.90;;
6117;SDS011;3089;48.202;11.510;2022-12-07T03:33:57;8.40;;;4.60;;
6117;SDS011;3089;48.202;11.510;2022-12-07T03:36:33;9.20;;;4.60;;
6117;SDS011;3089;48.202;11.510;2022-12-07T03:39:08;9.47;;;4.97;;
6117;SDS011;3089;48.202;11.510;2022-12-07T03:41:44;8.53;;;4.47;;
6117;SDS011;3089;48.202;11.510;2022-12-07T03:44:15;8.30;;;4.87;;
6117;SDS011;3089;48.202;11.510;2022-12-07T03:46:46;8.80;;;5.23;;
6117;SDS011;3089;48.202;11.510;2022-12-07T03:49:21;9.03;;;4.93;;
6117;SDS011;3089;48.202;11.510;2022-12-07T03:51:54;11.77;;;5.10;;
6117;SDS011;3089;48.202;11.510;2022-12-07T03:54:28;9.03;;;5.00;;
6117;SDS011;3089;48.202;11.510;2022-12-07T03:57:00;8.10;;;4.77;;
6117;SDS011;3089;48.202;11.510;2022-12-07T03:59:29;11.47;;;5.90;;
6117;SDS011;3089;48.202;11.510;2022-12-07T04:02:01;8.20;;;4.80;;
6117;SDS011;3089;48.202;11.510;2022-12-07T04:04:31;21.00;;;10.53;;
6117;SDS011;3089;48.202;11.510;2022-12-07T04:06:59;11.50;;;6.20;;
6117;SDS011;3089;48.202;11.510;2022-12-07T04:09:27;11.20;;;6.13;;
6117;SDS011;3089;48.202;11.510;2022-12-07T04:11:55;10.00;;;5.10;;
6117;SDS011;3089;48.202;11.510;2022-12-07T04:14:23;11.70;;;6.10;;
6117;SDS011;3089;48.202;11.510;2022-12-07T04:16:52;9.93;;;5.07;;
6117;SDS011;3089;48.202;11.510;2022-12-07T04:19:25;8.90;;;5.30;;
6117;SDS011;3089;48.202;11.510;2022-12-07T04:21:54;12.67;;;6.43;;
6117;SDS011;3089;48.202;11.510;2022-12-07T04:24:22;11.23;;;5.73;;
6117;SDS011;3089;48.202;11.510;2022-12-07T04:26:50;8.63;;;4.87;;
6117;SDS011;3089;48.202;11.510;2022-12-07T04:29:18;10.67;;;5.20;;
6117;SDS011;3089;48.202;11.510;2022-12-07T04:31:47;7.73;;;4.60;;
6117;SDS011;3089;48.202;11.510;2022-12-07T04:34:15;8.40;;;4.93;;
6117;SDS011;3089;48.202;11.510;2022-12-07T04:36:45;8.33;;;4.93;;
6117;SDS011;3089;48.202;11.510;2022-12-07T04:39:17;7.40;;;4.50;;
6117;SDS011;3089;48.202;11.510;2022-12-07T04:41:46;10.17;;;5.03;;
6117;SDS011;3089;48.202;11.510;2022-12-07T04:44:15;9.93;;;5.80;;
6117;SDS011;3089;48.202;11.510;2022-12-07T04:46:44;9.37;;;4.83;;
6117;SDS011;3089;48.202;11.510;2022-12-07T04:49:12;9.13;;;4.90;;
6117;SDS011;3089;48.202;11.510;2022-12-07T04:51:40;9.30;;;4.33;;
6117;SDS011;3089;48.202;11.510;2022-12-07T04:54:10;9.17;;;4.97;;
6117;SDS011;3089;48.202;11.510;2022-12-07T04:56:39;9.40;;;4.73;;
6117;SDS011;3089;48.202;11.510;2022-12-07T04:59:07;10.50;;;4.70;;
6117;SDS011;3089;48.202;11.510;2022-12-07T05:01:35;7.73;;;4.40;;
6117;SDS011;3089;48.202;11.510;2022-12-07T05:04:03;10.60;;;5.33;;
6117;SDS011;3089;48.202;11.510;2022-12-07T05:06:31;9.20;;;4.90;;
6117;SDS011;3089;48.202;11.510;2022-12-07T05:08:59;10.33;;;5.80;;
6117;SDS011;3089;48.202;11.510;2022-12-07T05:11:28;9.37;;;4.70;;
6117;SDS011;3089;48.202;11.510;2022-12-07T05:14:06;8.07;;;4.80;;
6117;SDS011;3089;48.202;11.510;2022-12-07T05:16:36;8.90;;;4.97;;
6117;SDS011;3089;48.202;11.510;2022-12-07T05:19:04;8.70;;;4.90;;
6117;SDS011;3089;48.202;11.510;2022-12-07T05:21:32;8.80;;;4.73;;
6117;SDS011;3089;48.202;11.510;2022-12-07T05:24:01;10.10;;;5.07;;
6117;SDS011;3089;48.202;11.510;2022-12-07T05:26:30;9.53;;;4.93;;
6117;SDS011;3089;48.202;11.510;2022-12-07T05:28:58;10.50;;;5.43;;
6117;SDS011;3089;48.202;11.510;2022-12-07T05:31:26;8.43;;;4.90;;
6117;SDS011;3089;48.202;11.510;2022-12-07T05:33:55;8.63;;;4.90;;
6117;SDS011;3089;48.202;11.510;2022-12-07T05:36:22;10.73;;;5.77;;
6117;SDS011;3089;48.202;11.510;2022-12-07T05:38:50;9.30;;;5.27;;
6117;SDS011;3089;48.202;11.510;2022-12-07T05:41:18;8.30;;;4.90;;
6117;SDS011;3089;48.202;11.510;2022-12-07T05:44:05;8.90;;;5.23;;
6117;SDS011;3089;48.202;11.510;2022-12-07T05:46:33;9.73;;;5.23;;
6117;SDS011;3089;48.202;11.510;2022-12-07T05:49:01;12.23;;;6.70;;
6117;SDS011;3089;48.202;11.510;2022-12-07T05:51:30;10.80;;;5.70;;
6117;SDS011;3089;48.202;11.510;2022-12-07T05:53:57;8.73;;;4.80;;
6117;SDS011;3089;48.202;11.510;2022-12-07T05:56:25;10.70;;;5.53;;
6117;SDS011;3089;48.202;11.510;2022-12-07T05:58:53;14.60;;;5.73;;
6117;SDS011;3089;48.202;11.510;2022-12-07T06:01:40;8.97;;;5.50;;
6117;SDS011;3089;48.202;11.510;2022-12-07T06:04:08;10.33;;;6.13;;
6117;SDS011;3089;48.202;11.510;2022-12-07T06:06:36;9.73;;;5.60;;
6117;SDS011;3089;48.202;11.510;2022-12-07T06:09:04;11.10;;;6.00;;
6117;SDS011;3089;48.202;11.510;2022-12-07T06:11:32;9.97;;;5.67;;
6117;SDS011;3089;48.202;11.510;2022-12-07T06:14:17;9.17;;;5.53;;
6117;SDS011;3089;48.202;11.510;2022-12-07T06:16:46;9.77;;;5.60;;
6117;SDS011;3089;48.202;11.510;2022-12-07T06:19:14;9.20;;;5.03;;
6117;SDS011;3089;48.202;11.510;2022-12-07T06:21:42;14.10;;;4.77;;
6117;SDS011;3089;48.202;11.510;2022-12-07T06:24:10;12.90;;;7.30;;
6117;SDS011;3089;48.202;11.510;2022-12-07T06:26:39;11.27;;;6.13;;
6117;SDS011;3089;48.202;11.510;2022-12-07T06:29:08;9.27;;;5.60;;
6117;SDS011;3089;48.202;11.510;2022-12-07T06:31:36;11.63;;;4.97;;
6117;SDS011;3089;48.202;11.510;2022-12-07T06:34:06;10.70;;;5.43;;
6117;SDS011;3089;48.202;11.510;2022-12-07T06:36:37;8.90;;;5.27;;
6117;SDS011;3089;48.202;11.510;2022-12-07T06:39:05;9.80;;;4.93;;
6117;SDS011;3089;48.202;11.510;2022-12-07T06:41:35;10.00;;;5.17;;
6117;SDS011;3089;48.202;11.510;2022-12-07T06:44:03;12.93;;;5.93;;
6117;SDS011;3089;48.202;11.510;2022-12-07T06:46:32;10.10;;;5.90;;
6117;SDS011;3089;48.202;11.510;2022-12-07T06:49:01;9.47;;;5.00;;
6117;SDS011;3089;48.202;11.510;2022-12-07T06:51:31;8.70;;;5.50;;
6117;SDS011;3089;48.202;11.510;2022-12-07T06:54:01;10.83;;;5.93;;
6117;SDS011;3089;48.202;11.510;2022-12-07T06:56:29;11.07;;;5.60;;
6117;SDS011;3089;48.202;11.510;2022-12-07T06:58:57;10.70;;;5.80;;
6117;SDS011;3089;48.202;11.510;2022-12-07T07:01:25;11.90;;;5.87;;
6117;SDS011;3089;48.202;11.510;2022-12-07T07:03:53;11.57;;;6.10;;
6117;SDS011;3089;48.202;11.510;2022-12-07T07:06:21;12.77;;;6.40;;
6117;SDS011;3089;48.202;11.510;2022-12-07T07:08:50;9.00;;;5.40;;
6117;SDS011;3089;48.202;11.510;2022-12-07T07:11:18;12.63;;;6.50;;
6117;SDS011;3089;48.202;11.510;2022-12-07T07:13:47;10.90;;;6.13;;
6117;SDS011;3089;48.202;11.510;2022-12-07T07:16:15;12.97;;;6.27;;
6117;SDS011;3089;48.202;11.510;2022-12-07T07:18:43;12.03;;;6.30;;
6117;SDS011;3089;48.202;11.510;2022-12-07T07:21:11;11.77;;;5.80;;
6117;SDS011;3089;48.202;11.510;2022-12-07T07:23:39;15.17;;;6.90;;
6117;SDS011;3089;48.202;11.510;2022-12-07T07:26:08;11.40;;;6.60;;
6117;SDS011;3089;48.202;11.510;2022-12-07T07:28:36;10.60;;;6.03;;
6117;SDS011;3089;48.202;11.510;2022-12-07T07:31:04;16.53;;;6.83;;
6117;SDS011;3089;48.202;11.510;2022-12-07T07:33:32;9.40;;;5.77;;
6117;SDS011;3089;48.202;11.510;2022-12-07T07:36:00;11.87;;;6.07;;
6117;SDS011;3089;48.202;11.510;2022-12-07T07:38:28;10.30;;;6.00;;
6117;SDS011;3089;48.202;11.510;2022-12-07T07:40:56;14.90;;;6.33;;
6117;SDS011;3089;48.202;11.510;2022-12-07T07:43:25;10.90;;;6.17;;
6117;SDS011;3089;48.202;11.510;2022-12-07T07:45:53;13.23;;;6.97;;
6117;SDS011;3089;48.202;11.510;2022-12-07T07:48:21;11.47;;;6.50;;
6117;SDS011;3089;48.202;11.510;2022-12-07T07:50:51;14.70;;;7.00;;
6117;SDS011;3089;48.202;11.510;2022-12-07T07:53:22;14.73;;;6.47;;
6117;SDS011;3089;48.202;11.510;2022-12-07T07:55:50;11.57;;;6.53;;
6117;SDS011;3089;48.202;11.510;2022-12-07T07:58:19;11.80;;;5.17;;
6117;SDS011;3089;48.202;11.510;2022-12-07T08:00:49;10.23;;;5.67;;
6117;SDS011;3089;48.202;11.510;2022-12-07T08:03:16;12.17;;;7.33;;
6117;SDS011;3089;48.202;11.510;2022-12-07T08:05:44;13.40;;;7.53;;
6117;SDS011;3089;48.202;11.510;2022-12-07T08:08:12;11.93;;;7.00;;
6117;SDS011;3089;48.202;11.510;2022-12-07T08:10:40;14.63;;;7.90;;
6117;SDS011;3089;48.202;11.510;2022-12-07T08:13:08;14.13;;;6.83;;
6117;SDS011;3089;48.202;11.510;2022-12-07T08:15:40;13.27;;;7.57;;
6117;SDS011;3089;48.202;11.510;2022-12-07T08:18:10;13.97;;;7.23;;
6117;SDS011;3089;48.202;11.510;2022-12-07T08:20:39;12.87;;;7.30;;
6117;SDS011;3089;48.202;11.510;2022-12-07T08:23:08;12.60;;;6.60;;
6117;SDS011;3089;48.202;11.510;2022-12-07T08:25:37;14.00;;;6.97;;
6117;SDS011;3089;48.202;11.510;2022-12-07T08:28:05;14.20;;;7.00;;
6117;SDS011;3089;48.202;11.510;2022-12-07T08:30:33;14.57;;;7.10;;
6117;SDS011;3089;48.202;11.510;2022-12-07T08:33:04;13.57;;;6.83;;
6117;SDS011;3089;48.202;11.510;2022-12-07T08:35:34;14.87;;;7.10;;
6117;SDS011;3089;48.202;11.510;2022-12-07T08:38:02;12.47;;;6.70;;
6117;SDS011;3089;48.202;11.510;2022-12-07T08:40:30;15.97;;;7.73;;
6117;SDS011;3089;48.202;11.510;2022-12-07T08:42:58;15.87;;;8.60;;
6117;SDS011;3089;48.202;11.510;2022-12-07T08:45:26;14.53;;;7.23;;
6117;SDS011;3089;48.202;11.510;2022-12-07T08:47:55;15.53;;;8.80;;
6117;SDS011;3089;48.202;11.510;2022-12-07T08:50:25;14.67;;;8.20;;
6117;SDS011;3089;48.202;11.510;2022-12-07T08:52:56;10.97;;;5.90;;
6117;SDS011;3089;48.202;11.510;2022-12-07T08:55:25;10.97;;;5.60;;
6117;SDS011;3089;48.202;11.510;2022-12-07T08:57:54;12.63;;;5.90;;
6117;SDS011;3089;48.202;11.510;2022-12-07T09:00:24;13.27;;;6.47;;
6117;SDS011;3089;48.202;11.510;2022-12-07T09:02:53;13.70;;;7.60;;
6117;SDS011;3089;48.202;11.510;2022-12-07T09:05:21;11.80;;;7.10;;
6117;SDS011;3089;48.202;11.510;2022-12-07T09:07:50;14.63;;;7.33;;
6117;SDS011;3089;48.202;11.510;2022-12-07T09:10:21;14.10;;;6.90;;
6117;SDS011;3089;48.202;11.510;2022-12-07T09:12:49;16.10;;;7.50;;
6117;SDS011;3089;48.202;11.510;2022-12-07T09:15:17;14.20;;;7.40;;
6117;SDS011;3089;48.202;11.510;2022-12-07T09:17:45;18.80;;;9.33;;
6117;SDS011;3089;48.202;11.510;2022-12-07T09:20:13;14.63;;;7.90;;
6117;SDS011;3089;48.202;11.510;2022-12-07T09:22:41;16.00;;;8.00;;
6117;SDS011;3089;48.202;11.510;2022-12-07T09:25:08;14.87;;;8.80;;
6117;SDS011;3089;48.202;11.510;2022-12-07T09:27:38;12.87;;;7.00;;
6117;SDS011;3089;48.202;11.510;2022-12-07T09:30:06;14.80;;;8.10;;
6117;SDS011;3089;48.202;11.510;2022-12-07T09:32:34;14.50;;;7.97;;
6117;SDS011;3089;48.202;11.510;2022-12-07T09:35:02;13.97;;;6.47;;
6117;SDS011;3089;48.202;11.510;2022-12-07T09:37:30;10.20;;;6.10;;
6117;SDS011;3089;48.202;11.510;2022-12-07T09:40:01;13.63;;;7.47;;
6117;SDS011;3089;48.202;11.510;2022-12-07T09:42:32;13.63;;;7.00;;
6117;SDS011;3089;48.202;11.510;2022-12-07T09:45:04;16.20;;;7.27;;
6117;SDS011;3089;48.202;11.510;2022-12-07T09:47:33;15.17;;;7.97;;
6117;SDS011;3089;48.202;11.510;2022-12-07T09:50:03;14.20;;;7.50;;
6117;SDS011;3089;48.202;11.510;2022-12-07T09:52:33;14.63;;;7.33;;
6117;SDS011;3089;48.202;11.510;2022-12-07T09:55:08;16.67;;;7.60;;
6117;SDS011;3089;48.202;11.510;2022-12-07T09:57:39;15.10;;;6.77;;
6117;SDS011;3089;48.202;11.510;2022-12-07T10:00:12;15.53;;;7.73;;
6117;SDS011;3089;48.202;11.510;2022-12-07T10:02:46;11.20;;;5.40;;
6117;SDS011;3089;48.202;11.510;2022-12-07T10:05:18;12.57;;;7.03;;
6117;SDS011;3089;48.202;11.510;2022-12-07T10:07:50;13.20;;;7.53;;
6117;SDS011;3089;48.202;11.510;2022-12-07T10:10:23;12.87;;;7.00;;
6117;SDS011;3089;48.202;11.510;2022-12-07T10:12:57;16.00;;;6.60;;
6117;SDS011;3089;48.202;11.510;2022-12-07T10:15:45;13.30;;;6.87;;
6117;SDS011;3089;48.202;11.510;2022-12-07T10:18:19;13.47;;;5.73;;
6117;SDS011;3089;48.202;11.510;2022-12-07T10:23:59;12.00;;;5.97;;
6117;SDS011;3089;48.202;11.510;2022-12-07T10:26:30;16.43;;;7.53;;
6117;SDS011;3089;48.202;11.510;2022-12-07T10:29:01;14.23;;;6.50;;
6117;SDS011;3089;48.202;11.510;2022-12-07T10:31:42;14.37;;;6.73;;
6117;SDS011;3089;48.202;11.510;2022-12-07T10:34:15;11.67;;;6.80;;
6117;SDS011;3089;48.202;11.510;2022-12-07T10:36:50;16.17;;;6.83;;
6117;SDS011;3089;48.202;11.510;2022-12-07T10:39:19;12.93;;;7.40;;
6117;SDS011;3089;48.202;11.510;2022-12-07T10:41:52;14.33;;;7.93;;
6117;SDS011;3089;48.202;11.510;2022-12-07T10:44:22;11.07;;;6.00;;
6117;SDS011;3089;48.202;11.510;2022-12-07T10:47:07;8.60;;;4.50;;
6117;SDS011;3089;48.202;11.510;2022-12-07T10:56:04;14.93;;;6.33;;
6117;SDS011;3089;48.202;11.510;2022-12-07T10:58:46;11.17;;;5.50;;
6117;SDS011;3089;48.202;11.510;2022-12-07T11:01:23;11.40;;;6.20;;
6117;SDS011;3089;48.202;11.510;2022-12-07T11:04:00;11.77;;;5.40;;
6117;SDS011;3089;48.202;11.510;2022-12-07T11:06:41;11.10;;;4.87;;
6117;SDS011;3089;48.202;11.510;2022-12-07T11:09:24;12.60;;;5.30;;
6117;SDS011;3089;48.202;11.510;2022-12-07T11:12:27;11.30;;;5.13;;
6117;SDS011;3089;48.202;11.510;2022-12-07T11:15:08;10.20;;;4.90;;
6117;SDS011;3089;48.202;11.510;2022-12-07T11:17:42;11.47;;;5.50;;
6117;SDS011;3089;48.202;11.510;2022-12-07T11:20:23;13.47;;;5.93;;
6117;SDS011;3089;48.202;11.510;2022-12-07T11:23:13;10.50;;;5.10;;
6117;SDS011;3089;48.202;11.510;2022-12-07T11:25:49;13.13;;;5.67;;
6117;SDS011;3089;48.202;11.510;2022-12-07T11:28:26;9.17;;;4.90;;
6117;SDS011;3089;48.202;11.510;2022-12-07T11:31:12;8.03;;;4.20;;
6117;SDS011;3089;48.202;11.510;2022-12-07T11:33:55;8.10;;;4.13;;
6117;SDS011;3089;48.202;11.510;2022-12-07T11:36:35;11.47;;;5.50;;
6117;SDS011;3089;48.202;11.510;2022-12-07T11:39:09;9.77;;;4.33;;
6117;SDS011;3089;48.202;11.510;2022-12-07T11:41:43;9.67;;;4.70;;
6117;SDS011;3089;48.202;11.510;2022-12-07T11:44:17;12.37;;;4.97;;
6117;SDS011;3089;48.202;11.510;2022-12-07T11:46:54;9.23;;;4.30;;
6117;SDS011;3089;48.202;11.510;2022-12-07T11:49:27;7.83;;;4.10;;
6117;SDS011;3089;48.202;11.510;2022-12-07T11:52:06;10.57;;;5.53;;
6117;SDS011;3089;48.202;11.510;2022-12-07T11:54:43;7.50;;;4.20;;
6117;SDS011;3089;48.202;11.510;2022-12-07T11:57:14;9.10;;;4.30;;
6117;SDS011;3089;48.202;11.510;2022-12-07T11:59:47;6.80;;;3.57;;
6117;SDS011;3089;48.202;11.510;2022-12-07T12:02:19;10.37;;;4.70;;
6117;SDS011;3089;48.202;11.510;2022-12-07T12:04:51;8.23;;;4.13;;
6117;SDS011;3089;48.202;11.510;2022-12-07T12:07:26;9.23;;;5.40;;
6117;SDS011;3089;48.202;11.510;2022-12-07T12:10:20;11.13;;;5.10;;
6117;SDS011;3089;48.202;11.510;2022-12-07T12:13:09;7.70;;;4.67;;
6117;SDS011;3089;48.202;11.510;2022-12-07T12:16:30;10.13;;;5.50;;
6117;SDS011;3089;48.202;11.510;2022-12-07T12:19:16;9.70;;;5.30;;
6117;SDS011;3089;48.202;11.510;2022-12-07T12:21:54;10.00;;;5.10;;
6117;SDS011;3089;48.202;11.510;2022-12-07T12:24:28;10.13;;;5.70;;
6117;SDS011;3089;48.202;11.510;2022-12-07T12:27:02;11.70;;;5.67;;
6117;SDS011;3089;48.202;11.510;2022-12-07T12:29:34;8.33;;;4.30;;
6117;SDS011;3089;48.202;11.510;2022-12-07T12:32:04;8.20;;;4.00;;
6117;SDS011;3089;48.202;11.510;2022-12-07T12:34:39;8.40;;;4.13;;
6117;SDS011;3089;48.202;11.510;2022-12-07T12:49:30;12.10;;;5.03;;
6117;SDS011;3089;48.202;11.510;2022-12-07T12:55:20;10.40;;;5.17;;
6117;SDS011;3089;48.202;11.510;2022-12-07T13:04:17;7.80;;;4.47;;
6117;SDS011;3089;48.202;11.510;2022-12-07T13:06:50;10.27;;;4.53;;
6117;SDS011;3089;48.202;11.510;2022-12-07T13:09:19;10.57;;;5.37;;
6117;SDS011;3089;48.202;11.510;2022-12-07T13:11:50;10.00;;;5.60;;
6117;SDS011;3089;48.202;11.510;2022-12-07T13:14:52;9.13;;;5.00;;
6117;SDS011;3089;48.202;11.510;2022-12-07T13:23:22;9.33;;;4.80;;
6117;SDS011;3089;48.202;11.510;2022-12-07T13:26:09;8.77;;;4.10;;
6117;SDS011;3089;48.202;11.510;2022-12-07T13:28:43;7.47;;;3.90;;
6117;SDS011;3089;48.202;11.510;2022-12-07T13:34:02;9.43;;;4.20;;
6117;SDS011;3089;48.202;11.510;2022-12-07T13:36:33;8.93;;;4.03;;
6117;SDS011;3089;48.202;11.510;2022-12-07T13:41:49;7.70;;;4.27;;
6117;SDS011;3089;48.202;11.510;2022-12-07T13:44:18;10.00;;;4.00;;
6117;SDS011;3089;48.202;11.510;2022-12-07T13:46:51;9.03;;;4.00;;
6117;SDS011;3089;48.202;11.510;2022-12-07T13:49:23;11.50;;;4.53;;
6117;SDS011;3089;48.202;11.510;2022-12-07T13:51:53;13.57;;;5.20;;
6117;SDS011;3089;48.202;11.510;2022-12-07T13:54:22;9.13;;;4.73;;
6117;SDS011;3089;48.202;11.510;2022-12-07T13:56:50;10.70;;;5.33;;
6117;SDS011;3089;48.202;11.510;2022-12-07T13:59:19;9.23;;;3.83;;
6117;SDS011;3089;48.202;11.510;2022-12-07T14:01:51;9.43;;;4.77;;
6117;SDS011;3089;48.202;11.510;2022-12-07T14:07:19;10.17;;;4.50;;
6117;SDS011;3089;48.202;11.510;2022-12-07T14:09:56;9.70;;;4.60;;
6117;SDS011;3089;48.202;11.510;2022-12-07T14:12:26;12.63;;;4.50;;
6117;SDS011;3089;48.202;11.510;2022-12-07T14:14:55;8.40;;;4.77;;
6117;SDS011;3089;48.202;11.510;2022-12-07T14:17:27;8.37;;;3.80;;
6117;SDS011;3089;48.202;11.510;2022-12-07T14:19:56;10.60;;;5.00;;
6117;SDS011;3089;48.202;11.510;2022-12-07T14:22:27;12.03;;;5.37;;
6117;SDS011;3089;48.202;11.510;2022-12-07T14:25:01;7.90;;;4.20;;
6117;SDS011;3089;48.202;11.510;2022-12-07T14:27:47;12.07;;;4.50;;
6117;SDS011;3089;48.202;11.510;2022-12-07T14:30:17;10.60;;;4.37;;
6117;SDS011;3089;48.202;11.510;2022-12-07T14:32:48;9.30;;;4.07;;
6117;SDS011;3089;48.202;11.510;2022-12-07T14:35:18;19.30;;;4.40;;
6117;SDS011;3089;48.202;11.510;2022-12-07T14:37:47;7.73;;;4.03;;
6117;SDS011;3089;48.202;11.510;2022-12-07T14:40:16;8.50;;;4.20;;
6117;SDS011;3089;48.202;11.510;2022-12-07T14:42:46;9.30;;;4.83;;
6117;SDS011;3089;48.202;11.510;2022-12-07T14:45:17;11.07;;;6.17;;
6117;SDS011;3089;48.202;11.510;2022-12-07T14:47:47;11.37;;;5.00;;
6117;SDS011;3089;48.202;11.510;2022-12-07T14:50:36;10.77;;;6.00;;
6117;SDS011;3089;48.202;11.510;2022-12-07T14:53:27;10.00;;;5.50;;
6117;SDS011;3089;48.202;11.510;2022-12-07T14:55:58;19.43;;;5.43;;
6117;SDS011;3089;48.202;11.510;2022-12-07T14:58:26;13.23;;;4.73;;
6117;SDS011;3089;48.202;11.510;2022-12-07T15:00:54;16.10;;;6.80;;
6117;SDS011;3089;48.202;11.510;2022-12-07T15:03:23;11.60;;;5.87;;
6117;SDS011;3089;48.202;11.510;2022-12-07T15:05:51;9.93;;;5.00;;
6117;SDS011;3089;48.202;11.510;2022-12-07T15:08:19;12.37;;;5.60;;
6117;SDS011;3089;48.202;11.510;2022-12-07T15:10:46;10.40;;;5.30;;
6117;SDS011;3089;48.202;11.510;2022-12-07T15:13:14;11.43;;;5.17;;
6117;SDS011;3089;48.202;11.510;2022-12-07T15:16:00;11.67;;;5.83;;
6117;SDS011;3089;48.202;11.510;2022-12-07T15:18:29;10.07;;;5.87;;
6117;SDS011;3089;48.202;11.510;2022-12-07T15:20:57;13.20;;;5.63;;
6117;SDS011;3089;48.202;11.510;2022-12-07T15:23:25;11.20;;;5.37;;
6117;SDS011;3089;48.202;11.510;2022-12-07T15:25:52;11.63;;;6.30;;
6117;SDS011;3089;48.202;11.510;2022-12-07T15:28:20;9.83;;;5.30;;
6117;SDS011;3089;48.202;11.510;2022-12-07T15:30:48;16.83;;;4.80;;
6117;SDS011;3089;48.202;11.510;2022-12-07T15:33:16;11.97;;;5.77;;
6117;SDS011;3089;48.202;11.510;2022-12-07T15:35:45;12.43;;;5.40;;
6117;SDS011;3089;48.202;11.510;2022-12-07T15:38:13;12.23;;;5.50;;
6117;SDS011;3089;48.202;11.510;2022-12-07T15:40:41;13.90;;;5.97;;
6117;SDS011;3089;48.202;11.510;2022-12-07T15:43:09;9.20;;;4.60;;
6117;SDS011;3089;48.202;11.510;2022-12-07T15:45:57;11.23;;;5.53;;
6117;SDS011;3089;48.202;11.510;2022-12-07T15:48:25;12.90;;;5.47;;
6117;SDS011;3089;48.202;11.510;2022-12-07T15:51:02;10.97;;;6.00;;
6117;SDS011;3089;48.202;11.510;2022-12-07T15:53:30;12.53;;;5.87;;
6117;SDS011;3089;48.202;11.510;2022-12-07T15:55:58;10.60;;;4.70;;
6117;SDS011;3089;48.202;11.510;2022-12-07T15:58:26;8.87;;;4.97;;
6117;SDS011;3089;48.202;11.510;2022-12-07T16:00:54;8.53;;;4.70;;
6117;SDS011;3089;48.202;11.510;2022-12-07T16:03:22;12.43;;;5.60;;
6117;SDS011;3089;48.202;11.510;2022-12-07T16:05:50;15.97;;;7.50;;